createdAt,value
2023-05-06T00:01:26.669Z,3.83
2023-05-06T00:03:53.296Z,1.58
2023-05-06T00:06:19.956Z,4.78
2023-05-06T00:08:46.663Z,1.40
2023-05-06T00:11:13.699Z,3.70
2023-05-06T00:13:41.453Z,2.92
2023-05-06T00:16:08.214Z,1.42
2023-05-06T00:18:34.697Z,2.13
2023-05-06T00:21:01.276Z,3.83
2023-05-06T00:23:27.785Z,3.92
2023-05-06T00:25:54.891Z,1.95
2023-05-06T00:28:21.590Z,2.30
2023-05-06T00:30:48.090Z,2.22
2023-05-06T00:33:14.664Z,1.65
2023-05-06T00:35:41.164Z,2.08
2023-05-06T00:38:13.616Z,3.25
2023-05-06T00:40:42.548Z,1.48
2023-05-06T00:43:09.187Z,3.15
2023-05-06T00:45:36.914Z,1.88
2023-05-06T00:48:04.965Z,1.85
2023-05-06T00:50:34.462Z,1.48
2023-05-06T00:53:03.364Z,3.03
2023-05-06T00:55:30.512Z,2.75
2023-05-06T00:57:57.464Z,2.53
2023-05-06T01:00:24.099Z,1.70
2023-05-06T01:02:51.365Z,2.13
2023-05-06T01:05:20.856Z,2.50
2023-05-06T01:08:08.595Z,1.58
2023-05-06T01:10:52.109Z,1.10
2023-05-06T01:13:34.021Z,3.13
2023-05-06T01:16:02.077Z,2.95
2023-05-06T01:18:33.222Z,1.50
2023-05-06T01:21:01.793Z,2.28
2023-05-06T01:23:28.277Z,2.40
2023-05-06T01:25:54.841Z,3.05
2023-05-06T01:28:21.798Z,2.05
2023-05-06T01:31:11.986Z,3.55
2023-05-06T01:33:49.971Z,1.80
2023-05-06T01:36:26.045Z,1.88
2023-05-06T01:39:10.794Z,2.63
2023-05-06T01:41:40.608Z,1.50
2023-05-06T01:44:10.127Z,3.40
2023-05-06T01:46:36.704Z,1.85
2023-05-06T01:49:06.556Z,1.58
2023-05-06T01:51:34.174Z,2.17
2023-05-06T01:54:02.417Z,2.97
2023-05-06T01:56:32.213Z,2.38
2023-05-06T01:58:59.760Z,2.85
2023-05-06T02:01:26.576Z,1.83
2023-05-06T02:03:53.094Z,3.10
2023-05-06T02:06:19.902Z,4.13
2023-05-06T02:08:46.654Z,2.03
2023-05-06T02:11:18.817Z,1.95
2023-05-06T02:13:46.269Z,2.67
2023-05-06T02:16:13.006Z,6.18
2023-05-06T02:18:39.614Z,2.00
2023-05-06T02:21:06.111Z,3.03
2023-05-06T02:23:32.606Z,2.13
2023-05-06T02:25:59.118Z,3.45
2023-05-06T02:28:25.886Z,4.50
2023-05-06T02:30:58.691Z,2.22
2023-05-06T02:33:25.336Z,1.50
2023-05-06T02:35:51.959Z,2.03
2023-05-06T02:38:19.579Z,1.95
2023-05-06T02:40:46.086Z,2.55
2023-05-06T02:43:12.680Z,2.47
2023-05-06T02:45:39.214Z,2.38
2023-05-06T02:48:06.182Z,2.55
2023-05-06T02:50:34.022Z,1.70
2023-05-06T02:53:00.570Z,2.53
2023-05-06T02:55:27.134Z,2.33
2023-05-06T02:57:53.540Z,3.22
2023-05-06T03:00:20.190Z,2.45
2023-05-06T03:02:47.130Z,1.83
2023-05-06T03:05:13.687Z,3.47
2023-05-06T03:07:40.098Z,3.28
2023-05-06T03:10:07.493Z,2.83
2023-05-06T03:12:36.456Z,2.38
2023-05-06T03:15:02.994Z,2.50
2023-05-06T03:17:29.563Z,4.20
2023-05-06T03:19:56.524Z,3.45
2023-05-06T03:22:22.933Z,2.90
2023-05-06T03:24:49.766Z,1.70
2023-05-06T03:27:17.032Z,2.20
2023-05-06T03:29:46.632Z,2.22
2023-05-06T03:32:14.240Z,3.03
2023-05-06T03:34:43.632Z,4.35
2023-05-06T03:37:13.472Z,1.95
2023-05-06T03:39:46.130Z,2.28
2023-05-06T03:42:12.785Z,3.75
2023-05-06T03:44:39.370Z,2.65
2023-05-06T03:47:06.068Z,1.90
2023-05-06T03:49:33.572Z,3.50
2023-05-06T03:52:00.258Z,3.97
2023-05-06T03:54:26.828Z,2.25
2023-05-06T03:56:53.533Z,2.28
2023-05-06T03:59:20.965Z,4.80
2023-05-06T04:01:47.902Z,2.78
2023-05-06T04:04:15.495Z,5.18
2023-05-06T04:06:41.975Z,3.45
2023-05-06T04:09:08.408Z,4.65
2023-05-06T04:11:38.393Z,4.20
2023-05-06T04:14:06.826Z,3.75
2023-05-06T04:16:34.383Z,2.55
2023-05-06T04:19:02.492Z,2.30
2023-05-06T04:21:29.741Z,5.13
2023-05-06T04:24:02.404Z,4.45
2023-05-06T04:26:34.655Z,6.18
2023-05-06T04:29:01.589Z,3.40
2023-05-06T04:31:30.201Z,2.70
2023-05-06T04:34:02.559Z,2.92
2023-05-06T04:36:30.618Z,3.05
2023-05-06T04:39:11.257Z,2.97
2023-05-06T04:41:39.212Z,3.40
2023-05-06T04:44:06.169Z,3.40
2023-05-06T04:46:33.918Z,3.67
2023-05-06T04:49:01.478Z,3.67
2023-05-06T04:51:28.887Z,2.85
2023-05-06T04:53:55.515Z,3.33
2023-05-06T04:56:22.471Z,2.95
2023-05-06T04:58:49.722Z,2.10
2023-05-06T05:01:16.237Z,2.33
2023-05-06T05:03:42.701Z,3.63
2023-05-06T05:06:09.953Z,2.95
2023-05-06T05:08:36.471Z,3.00
2023-05-06T05:11:03.021Z,2.35
2023-05-06T05:13:30.789Z,4.18
2023-05-06T05:15:57.376Z,2.53
2023-05-06T05:18:29.026Z,2.17
2023-05-06T05:20:59.607Z,2.83
2023-05-06T05:23:26.726Z,4.65
2023-05-06T05:25:53.269Z,4.25
2023-05-06T05:28:20.704Z,3.35
2023-05-06T05:30:47.250Z,3.50
2023-05-06T05:33:14.213Z,4.03
2023-05-06T05:35:41.073Z,6.15
2023-05-06T05:38:08.742Z,4.32
2023-05-06T05:40:38.575Z,3.03
2023-05-06T05:43:05.901Z,3.13
2023-05-06T05:45:36.709Z,2.85
2023-05-06T05:48:03.838Z,3.92
2023-05-06T05:50:30.619Z,5.22
2023-05-06T05:52:58.068Z,5.43
2023-05-06T05:55:25.374Z,5.20
2023-05-06T05:57:52.010Z,6.28
2023-05-06T06:00:20.928Z,4.38
2023-05-06T06:02:47.392Z,3.83
2023-05-06T06:05:18.497Z,4.82
2023-05-06T06:07:45.497Z,3.92
2023-05-06T06:10:13.884Z,4.90
2023-05-06T06:12:40.680Z,7.38
2023-05-06T06:15:08.299Z,9.70
2023-05-06T06:17:36.632Z,6.88
2023-05-06T06:20:04.961Z,5.47
2023-05-06T06:22:31.444Z,6.57
2023-05-06T06:24:58.394Z,4.22
2023-05-06T06:27:24.942Z,4.70
2023-05-06T06:29:51.457Z,5.53
2023-05-06T06:32:18.146Z,4.78
2023-05-06T06:34:44.509Z,3.22
2023-05-06T06:37:11.290Z,4.68
2023-05-06T06:39:37.879Z,4.03
2023-05-06T06:42:04.770Z,5.43
2023-05-06T06:47:03.799Z,6.15
2023-05-06T06:49:31.126Z,5.35
2023-05-06T06:51:57.821Z,3.78
2023-05-06T06:54:24.311Z,6.13
2023-05-06T06:56:54.199Z,6.82
2023-05-06T06:59:20.613Z,8.93
2023-05-06T07:01:47.050Z,4.38
2023-05-06T07:04:13.584Z,5.18
2023-05-06T07:06:46.100Z,4.07
2023-05-06T07:09:17.494Z,7.45
2023-05-06T07:11:44.227Z,4.10
2023-05-06T07:14:15.974Z,4.85
2023-05-06T07:16:44.524Z,3.08
2023-05-06T07:19:14.386Z,4.60
2023-05-06T07:21:43.306Z,4.75
2023-05-06T07:24:12.389Z,4.75
2023-05-06T07:26:42.667Z,4.53
2023-05-06T07:29:09.213Z,3.60
2023-05-06T07:31:35.765Z,6.05
2023-05-06T07:34:02.411Z,6.97
2023-05-06T07:36:29.021Z,7.47
2023-05-06T07:39:10.898Z,5.80
2023-05-06T07:41:37.423Z,5.43
2023-05-06T07:44:12.987Z,3.65
2023-05-06T07:52:28.574Z,4.60
2023-05-06T07:55:03.148Z,3.83
2023-05-06T07:57:35.904Z,3.35
2023-05-06T08:00:14.062Z,2.60
2023-05-06T08:02:44.901Z,2.20
2023-05-06T08:05:21.753Z,2.13
2023-05-06T08:07:56.676Z,1.75
2023-05-06T08:10:38.942Z,2.33
2023-05-06T08:13:33.362Z,2.13
2023-05-06T08:16:25.910Z,3.47
2023-05-06T08:19:04.006Z,2.38
2023-05-06T08:21:42.096Z,2.78
2023-05-06T08:24:14.146Z,3.33
2023-05-06T08:26:49.647Z,2.95
2023-05-06T08:29:26.673Z,2.47
2023-05-06T08:32:03.526Z,3.08
2023-05-06T08:34:40.241Z,1.50
2023-05-06T08:37:14.260Z,1.02
2023-05-06T08:39:52.946Z,2.65
2023-05-06T08:42:27.560Z,1.27
2023-05-06T08:45:06.405Z,2.13
2023-05-06T08:47:32.948Z,1.23
2023-05-06T08:50:08.264Z,1.15
2023-05-06T08:52:45.013Z,3.22
2023-05-06T08:55:13.938Z,2.35
2023-05-06T08:57:50.326Z,2.13
2023-05-06T09:00:28.682Z,2.92
2023-05-06T09:02:58.485Z,2.22
2023-05-06T09:05:39.104Z,2.20
2023-05-06T09:08:11.142Z,2.22
2023-05-06T09:10:56.721Z,1.50
2023-05-06T09:13:38.581Z,2.45
2023-05-06T09:16:35.069Z,1.08
2023-05-06T09:19:14.785Z,2.55
2023-05-06T09:21:49.728Z,2.88
2023-05-06T09:24:21.808Z,2.55
2023-05-06T09:26:55.762Z,6.70
2023-05-06T09:29:31.288Z,2.28
2023-05-06T09:32:10.856Z,1.75
2023-05-06T09:34:52.657Z,0.83
2023-05-06T09:37:37.023Z,1.30
2023-05-06T09:40:09.912Z,1.67
2023-05-06T09:42:53.824Z,1.65
2023-05-06T09:45:28.102Z,2.15
2023-05-06T09:48:17.638Z,1.63
2023-05-06T09:51:03.935Z,0.77
2023-05-06T09:53:32.854Z,1.05
2023-05-06T09:56:07.644Z,1.52
2023-05-06T09:58:42.786Z,1.33
2023-05-06T10:01:38.893Z,2.30
2023-05-06T10:04:26.712Z,1.25
2023-05-06T10:07:06.516Z,1.05
2023-05-06T10:09:40.012Z,0.88
2023-05-06T10:15:07.198Z,1.80
2023-05-06T10:17:47.286Z,1.88
2023-05-06T10:20:20.684Z,1.33
2023-05-06T10:23:10.466Z,1.85
2023-05-06T10:25:47.943Z,5.45
2023-05-06T10:28:30.511Z,3.33
2023-05-06T10:31:16.646Z,1.80
2023-05-06T10:33:49.002Z,1.33
2023-05-06T10:36:33.583Z,2.90
2023-05-06T10:39:07.957Z,2.10
2023-05-06T10:41:38.929Z,2.63
2023-05-06T10:44:07.156Z,4.45
2023-05-06T10:47:06.540Z,2.58
2023-05-06T10:49:33.039Z,0.90
2023-05-06T10:52:21.364Z,1.02
2023-05-06T10:54:50.854Z,1.45
2023-05-06T10:57:26.941Z,1.13
2023-05-06T10:59:59.982Z,1.77
2023-05-06T11:02:31.034Z,2.17
2023-05-06T11:05:02.163Z,2.40
2023-05-06T11:07:32.011Z,1.88
2023-05-06T11:10:05.328Z,0.55
2023-05-06T11:13:00.780Z,1.98
2023-05-06T11:15:36.190Z,0.82
2023-05-06T11:18:29.339Z,0.55
2023-05-06T11:21:05.788Z,0.88
2023-05-06T11:23:44.319Z,1.20
2023-05-06T11:26:15.925Z,1.27
2023-05-06T11:31:52.042Z,1.58
2023-05-06T11:34:29.205Z,1.00
2023-05-06T11:37:12.140Z,2.00
2023-05-06T11:40:10.020Z,0.60
2023-05-06T11:42:39.250Z,1.20
2023-05-06T11:45:34.266Z,0.85
2023-05-06T11:48:08.099Z,1.25
2023-05-06T11:50:40.578Z,0.73
2023-05-06T11:53:19.110Z,0.60
2023-05-06T11:56:00.344Z,1.10
2023-05-06T11:59:08.300Z,1.20
2023-05-06T12:01:37.014Z,2.08
2023-05-06T12:04:10.847Z,1.15
2023-05-06T12:06:41.052Z,2.17
2023-05-06T12:09:22.330Z,1.90
2023-05-06T12:11:57.580Z,1.25
2023-05-06T12:14:24.987Z,1.45
2023-05-06T12:17:10.131Z,0.95
2023-05-06T12:19:41.580Z,1.35
2023-05-06T12:22:26.987Z,0.98
2023-05-06T12:24:53.648Z,1.33
2023-05-06T12:27:40.016Z,0.60
2023-05-06T12:30:15.440Z,1.38
2023-05-06T12:33:03.991Z,1.60
2023-05-06T12:35:35.347Z,1.00
2023-05-06T12:38:17.416Z,2.30
2023-05-06T12:41:05.274Z,1.70
2023-05-06T12:43:32.340Z,0.82
2023-05-06T12:46:09.567Z,0.63
2023-05-06T12:48:49.563Z,1.75
2023-05-06T12:51:34.134Z,1.30
2023-05-06T12:54:33.810Z,2.72
2023-05-06T12:57:07.051Z,0.95
2023-05-06T12:59:44.049Z,1.08
2023-05-06T13:02:19.237Z,3.15
2023-05-06T13:04:53.204Z,0.88
2023-05-06T13:07:19.726Z,1.05
2023-05-06T13:09:46.094Z,3.10
2023-05-06T13:12:12.483Z,1.95
2023-05-06T13:14:40.555Z,2.38
2023-05-06T13:17:07.838Z,1.52
2023-05-06T13:19:54.146Z,0.70
2023-05-06T13:22:40.384Z,1.23
2023-05-06T13:25:25.251Z,0.68
2023-05-06T13:28:00.626Z,0.80
2023-05-06T13:30:27.342Z,0.88
2023-05-06T13:32:55.319Z,1.92
2023-05-06T13:35:22.120Z,2.33
2023-05-06T13:37:54.021Z,1.10
2023-05-06T13:40:28.681Z,0.80
2023-05-06T13:42:58.252Z,1.13
2023-05-06T13:45:27.694Z,0.60
2023-05-06T13:47:54.352Z,0.73
2023-05-06T13:50:20.908Z,0.80
2023-05-06T13:52:52.277Z,1.63
2023-05-06T13:55:29.449Z,1.75
2023-05-06T13:58:06.983Z,1.55
2023-05-06T14:00:41.054Z,0.80
2023-05-06T14:03:17.703Z,0.80
2023-05-06T14:05:44.579Z,2.05
2023-05-06T14:08:11.636Z,1.55
2023-05-06T14:10:45.186Z,1.23
2023-05-06T14:13:12.347Z,0.95
2023-05-06T14:15:39.279Z,1.73
2023-05-06T14:18:12.717Z,0.80
2023-05-06T14:20:44.106Z,1.25
2023-05-06T14:23:15.720Z,0.60
2023-05-06T14:25:44.746Z,7.00
2023-05-06T14:28:15.903Z,1.52
2023-05-06T14:30:48.935Z,1.48
2023-05-06T14:33:19.445Z,1.23
2023-05-06T14:35:58.566Z,2.20
2023-05-06T14:38:25.203Z,1.92
2023-05-06T14:41:05.275Z,1.00
2023-05-06T14:43:39.756Z,2.08
2023-05-06T14:46:06.263Z,3.25
2023-05-06T14:48:32.631Z,5.93
2023-05-06T14:50:59.516Z,1.55
2023-05-06T14:53:25.865Z,1.58
2023-05-06T14:55:52.220Z,1.40
2023-05-06T14:58:18.654Z,1.90
2023-05-06T15:00:45.126Z,1.60
2023-05-06T15:03:11.513Z,2.67
2023-05-06T15:05:37.979Z,2.08
2023-05-06T15:08:04.500Z,1.95
2023-05-06T15:10:30.863Z,1.42
2023-05-06T15:12:57.257Z,1.50
2023-05-06T15:15:23.833Z,1.73
2023-05-06T15:17:52.164Z,1.77
2023-05-06T15:20:18.690Z,1.52
2023-05-06T15:22:45.119Z,2.67
2023-05-06T15:25:16.836Z,2.53
2023-05-06T15:27:52.938Z,2.47
2023-05-06T15:30:19.417Z,1.98
2023-05-06T15:32:47.424Z,2.10
2023-05-06T15:35:13.911Z,1.23
2023-05-06T15:37:40.407Z,1.50
2023-05-06T15:40:12.217Z,2.55
2023-05-06T15:42:39.073Z,1.67
2023-05-06T15:45:06.472Z,2.30
2023-05-06T15:47:35.278Z,1.92
2023-05-06T15:50:01.976Z,2.90
2023-05-06T15:52:28.490Z,2.42
2023-05-06T15:54:59.457Z,2.95
2023-05-06T15:57:26.512Z,2.80
2023-05-06T15:59:52.991Z,3.78
2023-05-06T16:04:49.093Z,2.63
2023-05-06T16:07:16.538Z,2.63
2023-05-06T16:09:43.007Z,1.88
2023-05-06T16:12:09.981Z,1.30
2023-05-06T16:14:36.479Z,2.28
2023-05-06T16:17:03.019Z,1.38
2023-05-06T16:19:32.016Z,1.58
2023-05-06T16:21:58.501Z,1.45
2023-05-06T16:24:24.980Z,1.33
2023-05-06T16:26:51.745Z,1.58
2023-05-06T16:29:20.484Z,1.02
2023-05-06T16:31:47.806Z,2.25
2023-05-06T16:34:14.893Z,2.00
2023-05-06T16:36:41.554Z,1.23
2023-05-06T16:39:08.324Z,1.85
2023-05-06T16:41:34.810Z,1.30
2023-05-06T16:44:01.745Z,2.00
2023-05-06T16:46:28.816Z,1.58
2023-05-06T16:48:55.838Z,1.10
2023-05-06T16:51:22.411Z,1.77
2023-05-06T16:53:48.905Z,1.15
2023-05-06T16:56:18.251Z,1.08
2023-05-06T16:58:44.687Z,1.63
2023-05-06T17:01:11.739Z,1.42
2023-05-06T17:03:38.442Z,2.88
2023-05-06T17:06:05.305Z,1.38
2023-05-06T17:08:36.159Z,1.55
2023-05-06T17:11:05.986Z,1.77
2023-05-06T17:13:32.432Z,1.77
2023-05-06T17:16:06.134Z,1.73
2023-05-06T17:18:32.493Z,3.42
2023-05-06T17:20:58.897Z,2.17
2023-05-06T17:23:25.343Z,2.20
2023-05-06T17:25:51.833Z,3.97
2023-05-06T17:31:04.867Z,4.10
2023-05-06T17:33:31.252Z,7.28
2023-05-06T17:35:57.680Z,3.60
2023-05-06T17:38:24.048Z,7.20
2023-05-06T17:40:50.474Z,9.85
2023-05-06T17:43:16.864Z,10.95
2023-05-06T17:45:43.237Z,6.07
2023-05-06T17:48:09.694Z,3.40
2023-05-06T17:50:38.943Z,2.65
2023-05-06T17:53:05.649Z,2.65
2023-05-06T17:55:32.090Z,4.55
2023-05-06T17:57:58.561Z,3.55
2023-05-06T18:00:24.993Z,6.95
2023-05-06T18:02:51.455Z,8.27
2023-05-06T18:05:18.422Z,3.83
2023-05-06T18:07:44.807Z,3.22
2023-05-06T18:10:11.288Z,4.50
2023-05-06T18:12:37.759Z,3.35
2023-05-06T18:15:05.298Z,4.55
2023-05-06T18:17:31.747Z,4.38
2023-05-06T18:19:58.233Z,3.40
2023-05-06T18:22:24.597Z,2.30
2023-05-06T18:24:55.011Z,2.40
2023-05-06T18:27:22.189Z,10.02
2023-05-06T18:29:48.629Z,5.25
2023-05-06T18:32:17.315Z,4.25
2023-05-06T18:34:43.915Z,4.70
2023-05-06T18:37:10.367Z,3.20
2023-05-06T18:39:43.180Z,2.60
2023-05-06T18:42:09.738Z,4.47
2023-05-06T18:44:36.387Z,3.63
2023-05-06T18:47:02.893Z,2.92
2023-05-06T18:49:30.630Z,3.88
2023-05-06T18:51:57.261Z,2.10
2023-05-06T18:54:26.974Z,4.20
2023-05-06T18:56:56.176Z,4.35
2023-05-06T18:59:22.573Z,2.95
2023-05-06T19:01:49.064Z,2.42
2023-05-06T19:04:16.218Z,2.30
2023-05-06T19:06:42.815Z,3.42
2023-05-06T19:09:09.236Z,1.65
2023-05-06T19:11:35.696Z,1.88
2023-05-06T19:14:02.239Z,2.42
2023-05-06T19:16:28.698Z,2.05
2023-05-06T19:18:55.151Z,2.15
2023-05-06T19:21:21.738Z,1.95
2023-05-06T19:23:48.276Z,2.20
2023-05-06T19:26:14.765Z,1.30
2023-05-06T19:28:41.295Z,3.95
2023-05-06T19:31:11.785Z,2.35
2023-05-06T19:33:39.017Z,1.30
2023-05-06T19:36:06.035Z,2.13
2023-05-06T19:38:32.385Z,2.05
2023-05-06T19:40:58.783Z,1.40
2023-05-06T19:43:25.282Z,1.30
2023-05-06T19:45:51.787Z,1.58
2023-05-06T19:48:19.581Z,0.77
2023-05-06T19:50:46.104Z,2.22
2023-05-06T19:53:12.538Z,4.18
2023-05-06T19:55:38.928Z,2.05
2023-05-06T19:58:05.379Z,1.83
2023-05-06T20:00:32.022Z,1.63
2023-05-06T20:02:59.827Z,1.35
2023-05-06T20:05:30.766Z,3.20
2023-05-06T20:07:59.673Z,2.45
2023-05-06T20:10:29.444Z,1.17
2023-05-06T20:12:57.781Z,1.50
2023-05-06T20:15:25.028Z,2.13
2023-05-06T20:17:51.477Z,3.35
2023-05-06T20:20:19.302Z,3.13
2023-05-06T20:22:45.990Z,1.33
2023-05-06T20:25:18.580Z,3.35
2023-05-06T20:27:45.789Z,1.27
2023-05-06T20:30:12.485Z,1.40
2023-05-06T20:32:40.274Z,3.78
2023-05-06T20:35:07.309Z,1.73
2023-05-06T20:37:35.198Z,1.80
2023-05-06T20:40:04.517Z,1.35
2023-05-06T20:42:31.467Z,1.92
2023-05-06T20:44:59.132Z,1.60
2023-05-06T20:47:26.054Z,2.33
2023-05-06T20:49:52.556Z,2.50
2023-05-06T20:52:19.052Z,2.65
2023-05-06T20:54:45.622Z,4.13
2023-05-06T20:57:14.243Z,1.95
2023-05-06T20:59:40.973Z,1.80
2023-05-06T21:02:07.667Z,1.73
2023-05-06T21:04:34.204Z,2.10
2023-05-06T21:07:00.952Z,2.80
2023-05-06T21:09:28.730Z,1.90
2023-05-06T21:11:56.018Z,4.18
2023-05-06T21:14:24.669Z,2.55
2023-05-06T21:16:52.009Z,2.05
2023-05-06T21:19:19.067Z,3.17
2023-05-06T21:21:45.626Z,2.15
2023-05-06T21:24:12.791Z,1.75
2023-05-06T21:26:39.651Z,4.35
2023-05-06T21:29:06.044Z,1.65
2023-05-06T21:31:32.488Z,3.75
2023-05-06T21:33:59.078Z,3.03
2023-05-06T21:36:25.967Z,3.03
2023-05-06T21:39:06.607Z,1.92
2023-05-06T21:41:35.323Z,3.80
2023-05-06T21:44:03.361Z,3.72
2023-05-06T21:46:29.973Z,4.43
2023-05-06T21:48:56.885Z,2.10
2023-05-06T21:51:23.458Z,2.85
2023-05-06T21:53:50.968Z,2.63
2023-05-06T21:56:18.337Z,2.40
2023-05-06T21:58:45.031Z,1.73
2023-05-06T22:01:11.580Z,1.40
2023-05-06T22:03:38.118Z,2.08
2023-05-06T22:06:04.908Z,2.45
2023-05-06T22:08:31.410Z,2.65
2023-05-06T22:10:58.042Z,2.63
2023-05-06T22:13:26.604Z,2.00
2023-05-06T22:15:53.868Z,5.40
2023-05-06T22:18:20.382Z,2.90
2023-05-06T22:20:50.729Z,1.52
2023-05-06T22:23:19.100Z,2.55
2023-05-06T22:25:46.457Z,2.53
2023-05-06T22:28:12.901Z,1.35
2023-05-06T22:30:39.331Z,1.85
2023-05-06T22:33:06.014Z,1.30
2023-05-06T22:35:32.519Z,1.95
2023-05-06T22:37:59.046Z,1.58
2023-05-06T22:40:27.639Z,2.30
2023-05-06T22:42:54.012Z,2.13
2023-05-06T22:45:20.442Z,2.53
2023-05-06T22:47:46.872Z,1.83
2023-05-06T22:50:13.327Z,2.00
2023-05-06T22:52:39.767Z,1.60
2023-05-06T22:55:06.840Z,5.40
2023-05-06T22:57:33.332Z,2.53
2023-05-06T22:59:59.874Z,1.63
2023-05-06T23:02:26.542Z,3.63
2023-05-06T23:04:53.042Z,2.47
2023-05-06T23:07:19.408Z,2.80
2023-05-06T23:09:45.841Z,4.88
2023-05-06T23:12:12.456Z,2.65
2023-05-06T23:14:38.876Z,2.50
2023-05-06T23:17:05.298Z,2.28
2023-05-06T23:19:31.804Z,2.28
2023-05-06T23:21:58.192Z,4.00
2023-05-06T23:24:24.599Z,2.95
2023-05-06T23:26:51.869Z,2.67
2023-05-06T23:29:18.281Z,3.10
2023-05-06T23:31:44.635Z,2.35
2023-05-06T23:34:11.053Z,1.67
2023-05-06T23:36:37.468Z,1.55
2023-05-06T23:39:04.090Z,2.50
2023-05-06T23:41:30.472Z,2.08
2023-05-06T23:43:56.952Z,1.92
2023-05-06T23:46:23.391Z,1.63
2023-05-06T23:48:49.816Z,2.10
2023-05-06T23:51:16.246Z,2.30
2023-05-06T23:53:42.643Z,3.15
2023-05-06T23:56:09.016Z,4.35
2023-05-06T23:58:35.452Z,1.73
